Time;durP1;ratioP1;P1;durP2;ratioP2;P2;SDS_P1;SDS_P2;PMS_P1;PMS_P2;Temp;Humidity;BMP_temperature;BMP_pressure;BME280_temperature;BME280_humidity;BME280_pressure;Samples;Min_cycle;Max_cycle;Signal;HPM_P1;HPM_P2
2023/06/09 00:00:04;;;;;;;5.65;4.60;;;;;;;17.33;69.17;99153.56;341682;28;5425;-60
2023/06/09 00:00:19;;;;;;;5.88;4.60;;;;;;;17.33;69.28;99146.53;338924;28;19196;-60
2023/06/09 00:00:31;;;;;;;7.22;4.75;;;;;;;17.36;68.97;99153.34;337749;28;17947;-62
2023/06/09 00:00:46;;;;;;;7.35;4.75;;;;;;;17.36;69.34;99153.34;341511;28;4622;-62
2023/06/09 00:00:58;;;;;;;7.95;4.97;;;;;;;17.33;69.30;99153.56;337845;28;18962;-61
2023/06/09 00:01:11;;;;;;;9.52;4.93;;;;;;;17.34;69.94;99147.38;331666;28;19096;-61
2023/06/09 00:01:25;;;;;;;9.05;4.60;;;;;;;17.36;69.58;99153.34;341698;28;4683;-60
2023/06/09 00:01:37;;;;;;;6.85;4.47;;;;;;;17.35;69.71;99151.69;338686;28;18010;-62
2023/06/09 00:01:53;;;;;;;7.72;4.65;;;;;;;17.36;69.66;99148.09;337796;28;16104;-61
2023/06/09 00:02:06;;;;;;;8.52;4.85;;;;;;;17.37;68.99;99149.78;337894;28;17864;-62
2023/06/09 00:02:19;;;;;;;7.22;4.72;;;;;;;17.36;69.21;99148.97;339574;28;4692;-60
2023/06/09 00:02:33;;;;;;;6.55;4.82;;;;;;;17.37;69.13;99160.31;337978;28;18132;-62
2023/06/09 00:02:48;;;;;;;6.70;4.70;;;;;;;17.37;69.76;99155.03;339005;28;17766;-61
2023/06/09 00:03:00;;;;;;;6.88;4.85;;;;;;;17.37;69.91;99155.88;338653;28;18180;-62
2023/06/09 00:03:16;;;;;;;6.57;4.90;;;;;;;17.40;69.18;99154.00;338840;28;17618;-61
2023/06/09 00:03:28;;;;;;;6.65;4.63;;;;;;;17.35;69.30;99152.53;341834;28;4689;-62
2023/06/09 00:03:40;;;;;;;6.82;4.65;;;;;;;17.36;69.13;99153.34;338565;28;18311;-61
2023/06/09 00:03:55;;;;;;;7.97;4.97;;;;;;;17.36;69.22;99150.72;341800;28;4555;-62
2023/06/09 00:04:08;;;;;;;7.88;4.90;;;;;;;17.35;69.04;99156.94;337609;28;17729;-61
2023/06/09 00:04:23;;;;;;;6.88;4.65;;;;;;;17.37;69.00;99149.78;337710;28;17589;-62
2023/06/09 00:04:36;;;;;;;8.05;5.05;;;;;;;17.38;68.87;99151.47;338999;28;17614;-61
2023/06/09 00:04:49;;;;;;;7.57;4.82;;;;;;;17.40;68.75;99146.94;341526;28;4796;-61
2023/06/09 00:05:01;;;;;;;7.07;4.95;;;;;;;17.43;68.62;99154.63;338629;28;18102;-62
2023/06/09 00:05:15;;;;;;;6.53;4.70;;;;;;;17.45;68.37;99150.09;340889;28;5471;-60
2023/06/09 00:05:32;;;;;;;6.38;4.53;;;;;;;17.46;68.40;99148.31;338804;28;18197;-60
2023/06/09 00:05:44;;;;;;;6.20;4.45;;;;;;;17.40;68.04;99149.56;340303;28;17906;-61
2023/06/09 00:05:56;;;;;;;5.75;4.55;;;;;;;17.41;68.52;99151.25;338940;28;18226;-61
2023/06/09 00:06:08;;;;;;;6.13;4.50;;;;;;;17.42;68.22;99152.94;340802;28;4660;-62
2023/06/09 00:06:22;;;;;;;6.57;4.50;;;;;;;17.43;68.96;99153.78;338829;28;18221;-61
2023/06/09 00:06:35;;;;;;;6.75;4.72;;;;;;;17.43;68.56;99149.38;338442;28;18155;-61
2023/06/09 00:06:47;;;;;;;7.30;4.75;;;;;;;17.41;68.88;99156.50;341276;28;4562;-61
2023/06/09 00:07:02;;;;;;;6.75;4.60;;;;;;;17.33;68.91;99150.94;338492;28;10307;-61
2023/06/09 00:07:17;;;;;;;6.28;4.60;;;;;;;17.35;68.88;99146.44;340669;28;10137;-61
2023/06/09 00:07:33;;;;;;;6.20;4.70;;;;;;;17.36;68.69;99151.59;338199;28;19346;-61
2023/06/09 00:07:47;;;;;;;5.78;4.68;;;;;;;17.33;68.69;99148.31;339453;28;16971;-61
2023/06/09 00:07:59;;;;;;;6.05;4.68;;;;;;;17.37;68.55;99149.78;339001;28;4972;-61
2023/06/09 00:08:11;;;;;;;7.07;4.70;;;;;;;17.41;68.26;99150.44;340144;28;4757;-61
2023/06/09 00:08:25;;;;;;;8.13;4.68;;;;;;;17.43;68.41;99144.13;340311;28;5737;-61
2023/06/09 00:08:37;;;;;;;8.32;4.90;;;;;;;17.43;68.31;99144.13;338727;28;17983;-62
2023/06/09 00:08:50;;;;;;;7.63;4.90;;;;;;;17.44;68.57;99151.03;338710;28;9876;-61
2023/06/09 00:09:04;;;;;;;6.57;4.50;;;;;;;17.44;68.56;99144.94;340376;28;4744;-61
2023/06/09 00:09:16;;;;;;;5.78;4.40;;;;;;;17.44;68.69;99148.41;337764;28;18197;-61
2023/06/09 00:09:29;;;;;;;7.22;4.45;;;;;;;17.40;68.13;99141.69;341160;28;4548;-61
2023/06/09 00:09:43;;;;;;;8.35;4.70;;;;;;;17.39;67.96;99140.03;337926;28;17982;-63
2023/06/09 00:09:55;;;;;;;7.72;4.68;;;;;;;17.35;68.34;99146.44;338065;28;18058;-61
2023/06/09 00:10:07;;;;;;;6.35;4.65;;;;;;;17.36;69.00;99142.84;338063;28;4746;-62
2023/06/09 00:10:19;;;;;;;6.53;4.90;;;;;;;17.36;68.99;99148.09;338380;28;10916;-62
2023/06/09 00:10:31;;;;;;;6.30;4.90;;;;;;;17.34;68.57;99150.00;341431;28;4720;-62
2023/06/09 00:10:44;;;;;;;5.70;4.57;;;;;;;17.37;68.59;99145.38;340928;28;4989;-61
2023/06/09 00:10:56;;;;;;;5.75;4.50;;;;;;;17.39;68.60;99153.16;337594;28;17882;-62
2023/06/09 00:11:09;;;;;;;5.47;4.38;;;;;;;17.39;68.98;99147.91;340237;28;4688;-61
2023/06/09 00:11:21;;;;;;;5.65;4.53;;;;;;;17.43;68.69;99146.75;337681;28;19203;-61
2023/06/09 00:11:33;;;;;;;6.47;4.60;;;;;;;17.39;69.01;99147.06;340369;28;4678;-62
2023/06/09 00:11:46;;;;;;;7.10;4.60;;;;;;;17.38;68.96;99148.84;338069;28;18288;-61
2023/06/09 00:11:58;;;;;;;8.35;4.82;;;;;;;17.35;68.67;99149.06;340370;28;4725;-62
2023/06/09 00:12:13;;;;;;;7.68;4.97;;;;;;;17.29;68.47;99150.31;338461;28;17790;-61
2023/06/09 00:12:25;;;;;;;6.28;4.93;;;;;;;17.26;68.20;99144.41;337737;28;18183;-61
2023/06/09 00:12:38;;;;;;;6.07;4.90;;;;;;;17.28;68.86;99147.78;340416;28;4542;-62
2023/06/09 00:12:50;;;;;;;5.63;4.60;;;;;;;17.30;68.73;99145.88;337442;28;19168;-62
2023/06/09 00:13:02;;;;;;;5.25;4.32;;;;;;;17.32;68.88;99146.63;340135;28;4476;-61
2023/06/09 00:13:15;;;;;;;5.45;4.30;;;;;;;17.32;68.79;99151.88;338667;28;4587;-61
2023/06/09 00:13:27;;;;;;;5.75;4.55;;;;;;;17.32;68.94;99151.88;339661;28;19486;-60
2023/06/09 00:13:39;;;;;;;6.65;4.60;;;;;;;17.33;68.72;99148.31;338017;28;10297;-62
2023/06/09 00:13:53;;;;;;;7.13;4.78;;;;;;;17.35;69.11;99151.69;341805;28;4586;-61
2023/06/09 00:14:05;;;;;;;6.65;4.80;;;;;;;17.36;69.12;99148.09;338265;28;18299;-60
2023/06/09 00:14:17;;;;;;;6.47;4.72;;;;;;;17.33;69.66;99148.31;341319;28;4546;-61
2023/06/09 00:14:29;;;;;;;6.95;5.00;;;;;;;17.34;69.22;99155.25;339033;28;11754;-61
2023/06/09 00:14:41;;;;;;;7.13;5.00;;;;;;;17.35;69.15;99146.44;341644;28;5359;-61
2023/06/09 00:14:53;;;;;;;7.13;4.82;;;;;;;17.35;69.39;99146.44;340857;28;4790;-62
2023/06/09 00:15:06;;;;;;;6.90;4.90;;;;;;;17.32;69.88;99146.63;337615;28;18467;-62
2023/06/09 00:15:19;;;;;;;7.68;5.00;;;;;;;17.35;69.44;99147.25;340143;28;5457;-62
2023/06/09 00:15:31;;;;;;;6.90;4.75;;;;;;;17.36;69.55;99148.09;338568;28;19680;-61
2023/06/09 00:15:43;;;;;;;7.68;4.82;;;;;;;17.35;69.59;99142.00;340122;28;4691;-60
2023/06/09 00:15:55;;;;;;;7.88;4.93;;;;;;;17.36;69.41;99142.84;337136;28;19387;-61
2023/06/09 00:16:07;;;;;;;8.25;5.07;;;;;;;17.37;69.02;99144.53;338952;28;4707;-62
2023/06/09 00:16:23;;;;;;;6.47;4.78;;;;;;;17.35;69.45;99142.00;336289;28;10416;-61
2023/06/09 00:16:37;;;;;;;7.07;4.60;;;;;;;17.38;69.40;99146.19;336182;28;17893;-62
2023/06/09 00:16:49;;;;;;;7.18;4.75;;;;;;;17.40;69.00;99139.06;336910;28;5635;-61
2023/06/09 00:17:02;;;;;;;7.00;4.80;;;;;;;17.39;69.05;99147.91;337478;28;17303;-61
2023/06/09 00:17:14;;;;;;;6.20;4.70;;;;;;;17.42;68.91;99141.59;336893;28;12551;-61
2023/06/09 00:17:26;;;;;;;7.40;5.00;;;;;;;17.40;69.20;99149.56;339986;28;4675;-61
2023/06/09 00:17:39;;;;;;;7.35;5.10;;;;;;;17.38;69.11;99143.56;337613;28;5166;-61
2023/06/09 00:17:53;;;;;;;7.00;4.78;;;;;;;17.38;69.21;99146.19;340338;28;17326;-61
2023/06/09 00:18:05;;;;;;;6.22;4.43;;;;;;;17.37;69.83;99141.91;337833;28;18402;-61
2023/06/09 00:18:17;;;;;;;6.22;4.35;;;;;;;17.33;69.23;99145.69;340626;28;4710;-62
2023/06/09 00:18:29;;;;;;;7.38;4.63;;;;;;;17.33;68.90;99145.69;339174;28;9803;-61
2023/06/09 00:18:43;;;;;;;7.40;4.82;;;;;;;17.36;69.01;99148.09;341715;28;5900;-61
2023/06/09 00:18:57;;;;;;;7.33;5.00;;;;;;;17.38;68.93;99146.19;338444;28;17903;-61
2023/06/09 00:19:11;;;;;;;7.25;4.82;;;;;;;17.40;68.94;99133.81;340061;28;4672;-60
2023/06/09 00:19:24;;;;;;;6.88;4.65;;;;;;;17.45;68.78;99142.22;340193;28;18123;-61
2023/06/09 00:19:37;;;;;;;7.32;4.57;;;;;;;17.47;68.29;99142.94;338459;28;18286;-62
2023/06/09 00:19:52;;;;;;;6.38;4.43;;;;;;;17.47;68.42;99145.59;337547;28;18323;-63
2023/06/09 00:20:08;;;;;;;6.05;4.43;;;;;;;17.47;68.26;99140.31;339073;28;5139;-61
2023/06/09 00:20:20;;;;;;;7.00;4.72;;;;;;;17.45;68.28;99136.97;338670;28;16367;-61
2023/06/09 00:20:33;;;;;;;6.95;4.90;;;;;;;17.42;68.42;99139.78;341746;28;4648;-61
2023/06/09 00:20:46;;;;;;;6.88;4.95;;;;;;;17.42;68.38;99142.41;338108;28;19024;-61
2023/06/09 00:20:59;;;;;;;6.97;4.65;;;;;;;17.42;68.29;99150.28;340240;28;4668;-61
2023/06/09 00:21:15;;;;;;;8.65;4.43;;;;;;;17.44;68.25;99139.69;338863;28;18360;-60
2023/06/09 00:21:27;;;;;;;8.38;4.10;;;;;;;17.44;68.07;99143.16;337566;28;17443;-62
2023/06/09 00:21:39;;;;;;;6.45;4.35;;;;;;;17.45;67.96;99139.59;338861;28;10683;-61
2023/06/09 00:21:51;;;;;;;7.03;4.60;;;;;;;17.47;68.14;99142.13;341680;28;5427;-60
2023/06/09 00:22:05;;;;;;;6.97;4.60;;;;;;;17.46;67.76;99138.63;340879;28;5716;-62
2023/06/09 00:22:17;;;;;;;6.20;4.38;;;;;;;17.46;67.54;99143.88;337593;28;18176;-62
2023/06/09 00:22:31;;;;;;;5.57;4.25;;;;;;;17.46;67.59;99136.00;340002;28;8961;-62
2023/06/09 00:22:43;;;;;;;6.55;4.55;;;;;;;17.44;67.46;99137.91;338588;28;18264;-61
2023/06/09 00:22:58;;;;;;;6.53;4.50;;;;;;;17.41;67.66;99143.38;339086;28;19191;-61
2023/06/09 00:23:13;;;;;;;6.20;4.57;;;;;;;17.37;67.75;99145.38;338489;28;17761;-61
2023/06/09 00:23:28;;;;;;;6.72;4.70;;;;;;;17.36;67.91;99142.84;338988;28;17931;-61
2023/06/09 00:23:44;;;;;;;8.38;4.88;;;;;;;17.28;68.32;99145.16;338857;28;17956;-61
2023/06/09 00:23:57;;;;;;;7.57;4.70;;;;;;;17.26;68.23;99137.38;338718;28;17983;-61
2023/06/09 00:24:09;;;;;;;5.65;4.40;;;;;;;17.27;68.30;99148.75;337522;28;10162;-61
2023/06/09 00:24:23;;;;;;;6.25;4.40;;;;;;;17.28;68.26;99139.91;341548;28;4626;-62
2023/06/09 00:24:40;;;;;;;6.93;4.63;;;;;;;17.30;68.27;99135.38;339094;28;17936;-60
2023/06/09 00:25:42;;;;;;;6.53;4.50;;;;;;;17.26;68.50;99141.78;358963;23;18135;-65
2023/06/09 00:25:54;;;;;;;6.55;4.55;;;;;;;17.25;68.30;99145.38;341638;28;5184;-65
2023/06/09 00:26:06;;;;;;;6.95;4.43;;;;;;;17.24;68.39;99147.16;339268;28;18251;-65
2023/06/09 00:26:18;;;;;;;7.90;4.40;;;;;;;17.24;68.65;99143.69;342073;28;4540;-65
2023/06/09 00:26:30;;;;;;;7.93;4.55;;;;;;;17.21;68.85;99138.66;339245;28;11328;-65
2023/06/09 00:26:42;;;;;;;6.35;4.50;;;;;;;17.16;69.03;99142.44;342877;28;4568;-65
2023/06/09 00:26:54;;;;;;;6.97;4.63;;;;;;;17.12;68.78;99137.47;339988;28;11904;-65
2023/06/09 00:27:08;;;;;;;6.25;4.50;;;;;;;17.09;68.91;99141.16;342106;28;4635;-65
2023/06/09 00:27:20;;;;;;;6.05;4.80;;;;;;;17.09;68.78;99143.78;339734;28;18271;-65
2023/06/09 00:27:32;;;;;;;7.25;4.95;;;;;;;17.08;69.15;99133.38;342553;28;4745;-65
2023/06/09 00:27:44;;;;;;;7.65;4.78;;;;;;;17.05;70.14;99141.47;340477;28;4671;-65
2023/06/09 00:27:57;;;;;;;7.70;4.60;;;;;;;17.06;69.60;99143.16;340881;28;5200;-66
2023/06/09 00:28:12;;;;;;;6.65;4.40;;;;;;;17.05;69.46;99134.44;340813;28;5277;-65
2023/06/09 00:28:24;;;;;;;5.72;4.40;;;;;;;17.04;69.70;99142.41;340341;28;17772;-64
2023/06/09 00:28:36;;;;;;;6.05;4.53;;;;;;;17.05;69.62;99134.44;339962;28;17872;-64
2023/06/09 00:28:48;;;;;;;6.00;4.55;;;;;;;17.07;69.50;99137.81;341294;28;5180;-64
2023/06/09 00:29:00;;;;;;;6.75;4.45;;;;;;;17.05;69.63;99139.69;339010;28;17043;-64
2023/06/09 00:29:12;;;;;;;7.30;4.72;;;;;;;17.06;69.60;99136.09;342022;28;4723;-64
2023/06/09 00:29:24;;;;;;;7.15;4.70;;;;;;;17.07;69.56;99139.59;342170;28;5256;-64
2023/06/09 00:29:36;;;;;;;6.15;4.50;;;;;;;17.01;69.36;99137.38;339868;28;19158;-63
2023/06/09 00:29:48;;;;;;;5.85;4.32;;;;;;;16.89;69.54;99139.03;341959;28;4892;-64
2023/06/09 00:30:00;;;;;;;6.28;4.53;;;;;;;16.87;69.94;99146.19;339412;28;18018;-64
2023/06/09 00:30:14;;;;;;;6.50;4.63;;;;;;;16.85;70.19;99140.19;341826;28;5200;-64
2023/06/09 00:30:44;;;;;;;7.90;4.30;;;;;;;16.94;70.03;99131.69;339903;28;18636;-64
2023/06/09 00:30:56;;;;;;;8.07;4.68;;;;;;;16.87;69.91;99135.69;341756;28;17692;-64
2023/06/09 00:31:08;;;;;;;6.57;4.75;;;;;;;16.87;70.26;99139.13;342346;28;4571;-64
2023/06/09 00:31:21;;;;;;;6.13;4.82;;;;;;;16.84;70.36;99133.25;340217;28;18188;-64
2023/06/09 00:31:33;;;;;;;6.07;4.50;;;;;;;16.84;70.18;99134.09;341343;28;5158;-64
2023/06/09 00:31:45;;;;;;;5.90;4.60;;;;;;;16.84;70.30;99141.97;339909;28;15928;-64
2023/06/09 00:31:57;;;;;;;5.78;4.50;;;;;;;16.86;70.56;99141.84;343243;28;4655;-64
2023/06/09 00:32:11;;;;;;;6.13;4.63;;;;;;;16.88;70.17;99147.84;341326;28;4874;-64
2023/06/09 00:32:24;;;;;;;5.85;4.47;;;;;;;16.86;70.15;99134.84;342128;28;17254;-64
2023/06/09 00:32:36;;;;;;;5.80;4.40;;;;;;;16.84;70.55;99135.88;338678;28;18078;-64
2023/06/09 00:32:48;;;;;;;5.78;4.65;;;;;;;16.83;70.65;99140.28;341543;28;5252;-64
2023/06/09 00:33:01;;;;;;;5.72;4.68;;;;;;;16.84;70.37;99135.88;339088;28;18103;-64
2023/06/09 00:33:13;;;;;;;5.88;4.75;;;;;;;16.83;70.23;99128.97;342837;28;4563;-63
2023/06/09 00:33:25;;;;;;;8.07;4.95;;;;;;;16.84;69.97;99133.25;340060;28;10205;-64
2023/06/09 00:33:37;;;;;;;8.40;5.10;;;;;;;16.78;69.94;99126.59;342393;28;4952;-64
2023/06/09 00:33:49;;;;;;;6.78;4.85;;;;;;;16.75;70.51;99139.94;342616;28;4881;-64
2023/06/09 00:34:01;;;;;;;7.30;4.68;;;;;;;16.75;70.66;99138.13;340128;28;18078;-64
2023/06/09 00:34:13;;;;;;;7.40;4.65;;;;;;;16.77;70.63;99136.25;342689;28;4617;-64
2023/06/09 00:34:25;;;;;;;6.53;4.60;;;;;;;16.78;70.31;99143.19;339665;28;11197;-65
2023/06/09 00:34:37;;;;;;;5.53;4.57;;;;;;;16.80;70.42;99140.44;343119;28;5555;-65
2023/06/09 00:34:49;;;;;;;6.10;4.88;;;;;;;16.82;70.56;99137.75;343000;28;4687;-64
2023/06/09 00:35:02;;;;;;;6.60;5.10;;;;;;;16.82;70.64;99133.38;338824;28;18161;-64
2023/06/09 00:35:15;;;;;;;6.57;5.00;;;;;;;16.81;70.65;99136.06;339087;28;10125;-65
2023/06/09 00:35:27;;;;;;;6.80;5.00;;;;;;;16.83;70.95;99136.81;343185;28;4526;-64
2023/06/09 00:35:39;;;;;;;6.95;4.82;;;;;;;16.82;70.70;99136.00;342770;28;5368;-64
2023/06/09 00:35:51;;;;;;;6.43;4.70;;;;;;;16.85;70.58;99137.56;339738;28;19400;-65
2023/06/09 00:36:03;;;;;;;6.72;4.65;;;;;;;16.89;70.41;99136.41;341919;28;4754;-65
2023/06/09 00:36:15;;;;;;;6.00;4.47;;;;;;;16.93;70.44;99137.91;340000;28;16216;-65
2023/06/09 00:36:27;;;;;;;6.47;4.60;;;;;;;16.94;70.01;99137.78;341900;28;4741;-65
2023/06/09 00:36:40;;;;;;;5.65;4.60;;;;;;;16.94;70.03;99136.94;342460;28;4675;-64
2023/06/09 00:36:52;;;;;;;6.55;4.95;;;;;;;16.93;70.38;99135.25;338898;28;18319;-64
2023/06/09 00:37:05;;;;;;;7.30;5.03;;;;;;;16.91;70.45;99132.75;342258;28;4704;-64
2023/06/09 00:37:17;;;;;;;7.93;4.90;;;;;;;16.89;70.24;99139.03;338746;28;18160;-65
2023/06/09 00:37:30;;;;;;;7.30;4.55;;;;;;;16.84;70.33;99135.88;342552;28;5188;-64
2023/06/09 00:37:42;;;;;;;6.43;4.43;;;;;;;16.75;70.85;99137.31;339715;28;19172;-64
2023/06/09 00:37:54;;;;;;;7.50;4.65;;;;;;;16.76;70.84;99139.84;342122;28;4533;-64
2023/06/09 00:38:07;;;;;;;7.47;4.93;;;;;;;16.77;70.58;99136.25;339476;28;18592;-65
2023/06/09 00:38:19;;;;;;;6.43;4.75;;;;;;;16.81;70.66;99146.56;342406;28;5427;-64
2023/06/09 00:38:31;;;;;;;5.35;4.57;;;;;;;16.84;70.44;99138.50;339899;28;18378;-64
2023/06/09 00:38:43;;;;;;;6.28;4.75;;;;;;;16.87;70.44;99135.69;342684;28;4507;-64
2023/06/09 00:38:55;;;;;;;7.90;4.93;;;;;;;16.89;70.47;99139.03;339177;28;18523;-64
2023/06/09 00:39:09;;;;;;;8.18;5.00;;;;;;;16.88;70.65;99132.09;342464;28;4778;-64
2023/06/09 00:39:22;;;;;;;7.90;5.07;;;;;;;16.82;70.90;99132.50;340103;28;18134;-64
2023/06/09 00:39:34;;;;;;;7.20;5.07;;;;;;;16.76;70.64;99141.59;342944;28;5889;-64
2023/06/09 00:39:46;;;;;;;6.63;4.97;;;;;;;16.80;70.35;99134.38;340147;28;17766;-64
2023/06/09 00:39:58;;;;;;;6.15;4.55;;;;;;;16.84;70.69;99135.88;342241;28;5184;-64
2023/06/09 00:40:11;;;;;;;6.03;4.60;;;;;;;16.88;70.48;99137.34;339994;28;10460;-64
2023/06/09 00:40:23;;;;;;;6.25;4.60;;;;;;;16.85;70.42;99137.56;343058;28;4635;-64
2023/06/09 00:40:35;;;;;;;6.65;4.82;;;;;;;16.78;70.42;99139.69;340356;28;11057;-64
2023/06/09 00:40:49;;;;;;;6.88;4.80;;;;;;;16.74;70.83;99139.09;340179;28;4748;-64
2023/06/09 00:41:01;;;;;;;6.10;4.88;;;;;;;16.74;70.83;99140.84;338674;28;19085;-65
2023/06/09 00:41:13;;;;;;;5.75;4.90;;;;;;;16.73;71.52;99140.03;342419;28;5169;-64
2023/06/09 00:41:25;;;;;;;7.03;4.85;;;;;;;16.75;71.15;99132.88;340141;28;18380;-65
2023/06/09 00:41:39;;;;;;;8.57;4.90;;;;;;;16.77;71.02;99125.75;342764;28;7115;-64
2023/06/09 00:41:53;;;;;;;8.35;4.60;;;;;;;16.84;70.78;99130.63;338449;28;17827;-64
2023/06/09 00:42:06;;;;;;;7.40;4.55;;;;;;;16.88;70.53;99134.72;339225;28;17733;-64
2023/06/09 00:42:18;;;;;;;7.40;4.70;;;;;;;16.93;70.38;99130.00;341766;28;4572;-64
2023/06/09 00:42:30;;;;;;;6.65;4.55;;;;;;;16.95;70.18;99128.97;340292;28;9333;-65
2023/06/09 00:42:42;;;;;;;6.40;4.40;;;;;;;16.88;70.42;99137.34;341799;28;4654;-64
2023/06/09 00:42:54;;;;;;;6.90;4.57;;;;;;;16.87;70.97;99135.69;343025;28;4555;-64
2023/06/09 00:43:07;;;;;;;6.97;4.90;;;;;;;16.83;71.32;99134.19;339191;28;18205;-65
2023/06/09 00:43:19;;;;;;;6.22;4.93;;;;;;;16.83;71.32;99134.19;342283;28;4764;-65
2023/06/09 00:43:31;;;;;;;7.53;5.20;;;;;;;16.84;71.07;99135.88;338272;28;18487;-65
2023/06/09 00:43:47;;;;;;;6.78;4.88;;;;;;;16.83;71.44;99128.97;341324;28;4619;-65
2023/06/09 00:43:59;;;;;;;7.13;4.85;;;;;;;16.87;71.01;99138.31;339821;28;18130;-64
2023/06/09 00:44:12;;;;;;;7.13;5.00;;;;;;;16.85;70.95;99138.41;337636;28;18031;-64
2023/06/09 00:44:24;;;;;;;7.50;4.88;;;;;;;16.85;70.79;99137.56;341243;28;4666;-64
2023/06/09 00:44:36;;;;;;;8.70;4.97;;;;;;;16.84;70.96;99135.88;334638;28;18209;-64
2023/06/09 00:44:49;;;;;;;8.30;4.80;;;;;;;16.80;70.77;99139.59;340619;28;5177;-64
2023/06/09 00:45:01;;;;;;;7.47;4.80;;;;;;;16.81;70.65;99136.06;337047;28;18481;-65
2023/06/09 00:45:14;;;;;;;6.53;4.70;;;;;;;16.84;70.67;99138.50;340324;28;4925;-65
2023/06/09 00:45:26;;;;;;;6.50;4.70;;;;;;;16.85;70.93;99130.53;337503;28;18074;-65
2023/06/09 00:45:38;;;;;;;6.47;5.00;;;;;;;16.87;70.78;99138.31;342533;28;4649;-65
2023/06/09 00:45:50;;;;;;;6.13;5.03;;;;;;;16.88;70.55;99137.34;339181;28;16687;-65
2023/06/09 00:46:06;;;;;;;6.45;4.85;;;;;;;16.90;70.43;99130.22;341151;28;4814;-65
2023/06/09 00:46:18;;;;;;;6.43;4.78;;;;;;;16.90;70.63;99124.97;339259;28;17935;-65
2023/06/09 00:46:30;;;;;;;5.93;4.97;;;;;;;16.91;70.65;99135.38;339364;28;9959;-65
2023/06/09 00:46:42;;;;;;;6.97;5.20;;;;;;;16.93;70.37;99127.38;342345;28;5299;-65
2023/06/09 00:46:55;;;;;;;8.95;5.22;;;;;;;16.92;70.62;99128.31;341070;28;4712;-65
2023/06/09 00:47:07;;;;;;;9.32;5.03;;;;;;;16.91;70.80;99134.53;340761;28;18119;-65
2023/06/09 00:47:21;;;;;;;9.93;5.28;;;;;;;16.89;70.60;99144.28;341063;28;9690;-65
2023/06/09 00:47:33;;;;;;;10.50;5.30;;;;;;;16.88;71.10;99134.72;340625;28;18282;-65
2023/06/09 00:47:45;;;;;;;8.30;5.13;;;;;;;16.85;70.50;99132.31;339629;28;10071;-65
2023/06/09 00:47:57;;;;;;;7.00;4.97;;;;;;;16.84;70.66;99135.88;340927;28;4674;-64
2023/06/09 00:48:10;;;;;;;7.22;4.97;;;;;;;16.80;70.58;99135.19;342705;28;5717;-64
2023/06/09 00:48:22;;;;;;;6.80;4.82;;;;;;;16.76;70.71;99134.59;339910;28;18045;-64
2023/06/09 00:48:35;;;;;;;7.25;4.88;;;;;;;16.77;71.44;99138.88;341645;28;5242;-64
2023/06/09 00:48:47;;;;;;;7.70;5.10;;;;;;;16.81;71.20;99141.31;339129;28;18261;-63
2023/06/09 00:49:00;;;;;;;7.53;4.82;;;;;;;16.83;71.10;99134.19;341768;28;5188;-64
2023/06/09 00:49:12;;;;;;;7.40;4.53;;;;;;;16.83;71.23;99135.03;339220;28;18727;-64
2023/06/09 00:49:24;;;;;;;7.50;4.68;;;;;;;16.83;71.67;99136.81;342059;28;5537;-65
2023/06/09 00:49:36;;;;;;;7.45;4.60;;;;;;;16.83;71.49;99128.97;339038;28;18138;-65
2023/06/09 00:49:49;;;;;;;5.95;4.40;;;;;;;16.85;71.55;99137.56;342137;28;5473;-64
2023/06/09 00:50:01;;;;;;;5.22;4.40;;;;;;;16.88;71.01;99137.34;339481;28;17972;-65
2023/06/09 00:50:19;;;;;;;6.25;4.60;;;;;;;16.89;70.98;99124.13;342159;28;5138;-65
2023/06/09 00:50:31;;;;;;;6.68;4.72;;;;;;;16.92;70.94;99128.31;339014;28;17979;-65
2023/06/09 00:50:44;;;;;;;6.20;4.80;;;;;;;16.91;71.63;99131.91;340199;28;5258;-65
2023/06/09 00:50:57;;;;;;;6.20;4.90;;;;;;;16.94;71.30;99132.53;339282;28;17997;-65
2023/06/09 00:51:10;;;;;;;6.22;4.95;;;;;;;16.92;70.82;99138.81;341241;28;5551;-64
2023/06/09 00:51:22;;;;;;;6.55;5.00;;;;;;;16.92;70.83;99134.44;339360;28;18714;-64
2023/06/09 00:51:36;;;;;;;6.72;5.00;;;;;;;16.87;71.68;99130.44;341766;28;5337;-64
2023/06/09 00:51:48;;;;;;;6.43;4.95;;;;;;;16.88;71.64;99132.09;339681;28;16826;-65
2023/06/09 00:52:00;;;;;;;6.38;5.03;;;;;;;16.87;70.94;99138.31;340176;28;15408;-65
2023/06/09 00:52:14;;;;;;;6.13;4.80;;;;;;;16.80;70.77;99139.59;341563;28;4541;-64
2023/06/09 00:52:26;;;;;;;6.57;4.65;;;;;;;16.77;71.40;99131.00;340239;28;18012;-64
2023/06/09 00:52:40;;;;;;;7.15;4.72;;;;;;;16.81;71.74;99136.06;342147;28;5508;-65
2023/06/09 00:52:54;;;;;;;6.65;4.93;;;;;;;16.82;71.87;99132.50;339371;28;17826;-65
2023/06/09 00:53:09;;;;;;;7.30;4.90;;;;;;;16.86;71.62;99133.97;340161;28;17976;-65
2023/06/09 00:53:22;;;;;;;7.97;4.87;;;;;;;16.91;71.24;99137.16;338579;28;17705;-65
2023/06/09 00:53:35;;;;;;;7.35;4.93;;;;;;;16.93;70.85;99130.00;342621;28;4669;-64
2023/06/09 00:53:47;;;;;;;7.00;5.05;;;;;;;16.96;70.90;99133.28;340189;28;18435;-64
2023/06/09 00:53:59;;;;;;;6.40;4.93;;;;;;;16.98;70.66;99138.41;342299;28;5052;-64
2023/06/09 00:54:12;;;;;;;6.75;4.80;;;;;;;16.97;71.15;99128.88;338591;28;16806;-64
2023/06/09 00:54:24;;;;;;;6.93;4.80;;;;;;;16.91;71.04;99127.50;341687;28;4700;-64
2023/06/09 00:54:37;;;;;;;6.65;4.82;;;;;;;16.93;70.84;99130.00;340400;28;18432;-64
2023/06/09 00:54:52;;;;;;;6.53;4.80;;;;;;;16.93;71.07;99135.25;343109;28;5514;-64
2023/06/09 00:55:04;;;;;;;6.65;4.90;;;;;;;16.90;71.13;99138.09;338595;28;18185;-64
2023/06/09 00:55:18;;;;;;;6.85;5.05;;;;;;;16.91;71.03;99129.28;338981;28;18027;-63
2023/06/09 00:55:32;;;;;;;6.85;4.85;;;;;;;16.87;71.19;99136.50;338670;28;15964;-65
2023/06/09 00:55:44;;;;;;;6.78;4.80;;;;;;;16.90;71.10;99135.47;340791;28;4666;-65
2023/06/09 00:55:56;;;;;;;6.15;4.88;;;;;;;16.89;70.75;99134.63;339590;28;18060;-65
2023/06/09 00:56:12;;;;;;;7.55;5.00;;;;;;;16.89;71.08;99139.03;341806;28;4693;-65
2023/06/09 00:56:25;;;;;;;7.95;5.20;;;;;;;16.86;70.87;99132.22;339103;28;16764;-65
2023/06/09 00:56:39;;;;;;;6.82;5.30;;;;;;;16.90;71.07;99130.22;338370;28;18072;-65
2023/06/09 00:56:51;;;;;;;6.47;5.03;;;;;;;16.83;70.90;99134.19;338926;28;17995;-64
2023/06/09 00:57:05;;;;;;;6.50;4.80;;;;;;;16.84;70.82;99135.88;342130;28;4562;-64
2023/06/09 00:57:18;;;;;;;6.43;4.65;;;;;;;16.86;70.68;99140.09;338548;28;18233;-64
2023/06/09 00:57:33;;;;;;;5.97;4.85;;;;;;;16.91;70.36;99139.78;341354;28;5509;-64
2023/06/09 00:57:47;;;;;;;6.05;4.70;;;;;;;16.94;70.59;99131.69;338890;28;18207;-65
2023/06/09 00:58:01;;;;;;;6.00;4.70;;;;;;;16.94;70.50;99131.69;341499;28;4770;-65
2023/06/09 00:58:13;;;;;;;6.60;4.93;;;;;;;16.89;70.64;99144.28;339600;28;17940;-65
2023/06/09 00:58:26;;;;;;;6.90;5.10;;;;;;;16.77;70.77;99144.13;337759;28;10936;-65
2023/06/09 00:58:38;;;;;;;8.20;5.43;;;;;;;16.77;71.20;99140.66;341214;28;4653;-65
2023/06/09 00:58:51;;;;;;;9.02;5.40;;;;;;;16.64;70.95;99145.88;339807;28;10983;-65
2023/06/09 00:59:05;;;;;;;8.98;5.30;;;;;;;16.66;71.33;99137.91;339722;28;17420;-65
2023/06/09 00:59:17;;;;;;;6.50;4.80;;;;;;;16.74;71.20;99144.34;338988;28;17999;-65
2023/06/09 00:59:29;;;;;;;6.68;4.70;;;;;;;16.78;71.28;99143.19;340344;28;4543;-65
2023/06/09 00:59:42;;;;;;;6.53;4.65;;;;;;;16.80;70.91;99140.44;338601;28;19089;-64
2023/06/09 00:59:55;;;;;;;6.68;4.60;;;;;;;16.80;71.61;99142.22;342846;28;4518;-65
2023/06/09 01:00:10;;;;;;;5.90;4.53;;;;;;;16.82;71.28;99143.00;339475;28;18807;-65
2023/06/09 01:00:26;;;;;;;6.10;4.70;;;;;;;16.88;71.05;99142.59;339740;28;17946;-65
2023/06/09 01:00:39;;;;;;;6.22;4.60;;;;;;;16.87;71.00;99140.94;339442;28;17607;-64
2023/06/09 01:00:51;;;;;;;6.82;4.75;;;;;;;16.87;70.92;99141.75;338189;28;11780;-64
2023/06/09 01:01:04;;;;;;;6.80;5.00;;;;;;;16.87;70.90;99146.19;340990;28;4666;-64
2023/06/09 01:01:16;;;;;;;6.45;4.82;;;;;;;16.89;70.68;99139.03;341570;28;4551;-64
2023/06/09 01:01:28;;;;;;;6.70;4.85;;;;;;;16.88;70.70;99137.34;338796;28;17782;-64
2023/06/09 01:01:43;;;;;;;6.97;4.97;;;;;;;16.88;70.62;99139.97;341823;28;4719;-65
2023/06/09 01:01:55;;;;;;;7.07;5.00;;;;;;;16.91;70.66;99137.16;340293;28;19029;-65
2023/06/09 01:02:07;;;;;;;6.75;4.90;;;;;;;16.92;70.42;99133.56;339603;28;18172;-65
2023/06/09 01:02:19;;;;;;;6.57;4.88;;;;;;;16.90;70.63;99146.81;342058;28;4660;-64
2023/06/09 01:02:31;;;;;;;6.72;4.88;;;;;;;16.90;70.72;99138.09;340153;28;11942;-65
2023/06/09 01:02:44;;;;;;;7.03;4.95;;;;;;;16.88;70.69;99142.59;340952;28;4728;-64